Pagina principale
METAR-TAF:

METAR-TAF

Aeroporti :

Aeroporto di Clermont-Ferrand Auvergne

Clermont-Ferrand, Francia

latitudine: 45-47N, longitudine: 003-10E, altezza: 332 m

Osservazione

Il bollettino è stato emesso 21 minuti fa, alle 06:00 UTC
Vento 2 kt da nord/nord-est
Temperature 3°C
Umidità 93%
Pressione 1012 hPa
Visibilità 10 km o più
Poco nuvoloso ad un'altezza di 1800 ft
Nuvoloso ad un'altezza di 2500 ft
Cielo coperto ad un'altezza di 3200 ft

METAR: LFLC 180600Z AUTO 02002KT 9999 FEW018 BKN025 OVC032 03/02 Q1012 NOSIG

Ora: 07:21 (06:21 UTC)

Previsione

Il bollettino è stato emesso 4 ore e 21 minuti fa, alle 02:00 UTC
Previsione valida dal 18 alle 03 UTC al 19 alle 03 UTC
Vento 4 kt da nord/nord-ovest
Visibilità 10 km o più
Nuvoloso ad un'altezza di 2500 ft
Evoluzione graduale
dal 18 alle 12 UTC al 18 alle 14 UTC
Vento 8 kt da nord

TAF: LFLC 180200Z 1803/1903 34004KT 9999 BKN025 BECMG 1812/1814 36008KT

Osservazioni e previsioni meteorologiche di più di 4000 aeroporti (messaggi METAR e TAF).

Le stazioni disponibili sono rappresentate dai dischi gialli e rossi sulla carta.

Puntare il mouse per vedere il nome della stazione.

Clicca sopra per visualizzare le osservazioni e previsioni meteorologiche.

Per cambiare la mappa : fare clic sui pulsanti verdi con una croce nera per ingrandire, il pulsante verde con un trattino per diminuire, o sulla freccia verde per le mappe adiacenti.


METAR-TAF: